Time;durP1;ratioP1;P1;durP2;ratioP2;P2;SDS_P1;SDS_P2;PMS_P1;PMS_P2;Temp;Humidity;BMP_temperature;BMP_pressure;BME280_temperature;BME280_humidity;BME280_pressure;Samples;Min_cycle;Max_cycle;Signal;HPM_P1;HPM_P2
2022/06/01 00:00:27;;;;;;;10.88;5.40;;;;;;;;;;5053471;28;20027;-67
2022/06/01 00:02:53;;;;;;;9.85;5.20;;;;;;;;;;5053556;28;20032;-67
2022/06/01 00:05:19;;;;;;;8.98;5.13;;;;;;;;;;5052974;28;20040;-66
2022/06/01 00:07:46;;;;;;;13.15;5.90;;;;;;;;;;5053289;28;20048;-67
2022/06/01 00:10:11;;;;;;;10.30;5.13;;;;;;;;;;5053062;28;20029;-68
2022/06/01 00:12:37;;;;;;;10.98;5.30;;;;;;;;;;5052958;28;20523;-67
2022/06/01 00:15:03;;;;;;;13.30;5.07;;;;;;;;;;5053155;28;20028;-67
2022/06/01 00:17:29;;;;;;;10.25;5.25;;;;;;;;;;5052892;28;20111;-66
2022/06/01 00:19:54;;;;;;;13.70;5.40;;;;;;;;;;5053045;28;20047;-66
2022/06/01 00:22:20;;;;;;;12.85;5.40;;;;;;;;;;5052872;28;20047;-66
2022/06/01 00:24:47;;;;;;;8.70;5.13;;;;;;;;;;5052699;28;20100;-66
2022/06/01 00:27:14;;;;;;;8.55;5.57;;;;;;;;;;5052801;28;20422;-68
2022/06/01 00:29:40;;;;;;;11.15;5.55;;;;;;;;;;5052876;28;20029;-66
2022/06/01 00:32:08;;;;;;;11.60;5.80;;;;;;;;;;5052894;28;20036;-68
2022/06/01 00:34:34;;;;;;;10.32;5.25;;;;;;;;;;5052864;28;20509;-68
2022/06/01 00:36:59;;;;;;;8.93;5.75;;;;;;;;;;5052884;28;20049;-68
2022/06/01 00:39:25;;;;;;;11.32;5.50;;;;;;;;;;5052618;28;20029;-68
2022/06/01 00:41:51;;;;;;;11.55;5.35;;;;;;;;;;5052759;28;20079;-68
2022/06/01 00:44:17;;;;;;;10.73;6.10;;;;;;;;;;5052790;28;20020;-68
2022/06/01 00:46:42;;;;;;;11.60;5.38;;;;;;;;;;5052470;28;20043;-68
2022/06/01 00:49:17;;;;;;;9.13;5.55;;;;;;;;;;5052579;28;20029;-68
2022/06/01 00:51:44;;;;;;;9.23;5.22;;;;;;;;;;5052343;28;20053;-68
2022/06/01 00:54:11;;;;;;;11.38;5.78;;;;;;;;;;5052554;28;20025;-69
2022/06/01 00:56:40;;;;;;;12.43;5.90;;;;;;;;;;5052385;28;20021;-68
2022/06/01 00:59:09;;;;;;;9.73;5.60;;;;;;;;;;5052553;28;20032;-68
2022/06/01 01:01:36;;;;;;;11.70;5.78;;;;;;;;;;5052419;28;20025;-68
2022/06/01 01:04:04;;;;;;;11.02;6.32;;;;;;;;;;5052463;28;20100;-68
2022/06/01 01:06:32;;;;;;;13.88;5.53;;;;;;;;;;5051991;28;20040;-69
2022/06/01 01:08:59;;;;;;;9.38;5.60;;;;;;;;;;5052679;28;20025;-68
2022/06/01 01:11:51;;;;;;;10.23;5.22;;;;;;;;;;5052419;28;20017;-68
2022/06/01 01:14:20;;;;;;;8.98;4.80;;;;;;;;;;5049264;28;20037;-68
2022/06/01 01:16:48;;;;;;;9.85;4.72;;;;;;;;;;5052136;28;20033;-68
2022/06/01 01:19:25;;;;;;;9.60;4.47;;;;;;;;;;5054544;28;20432;-69
2022/06/01 01:22:10;;;;;;;7.07;4.38;;;;;;;;;;5056182;28;20049;-68
2022/06/01 01:24:39;;;;;;;9.43;4.18;;;;;;;;;;5056298;28;20039;-68
2022/06/01 01:27:04;;;;;;;7.35;4.57;;;;;;;;;;5056254;28;20036;-68
2022/06/01 01:29:33;;;;;;;8.57;4.43;;;;;;;;;;5056245;28;20024;-68
2022/06/01 01:31:58;;;;;;;5.50;4.18;;;;;;;;;;5056409;28;20052;-68
2022/06/01 01:34:24;;;;;;;6.75;4.10;;;;;;;;;;5056136;28;20441;-68
2022/06/01 01:36:54;;;;;;;7.38;4.05;;;;;;;;;;5055854;28;20037;-68
2022/06/01 01:39:19;;;;;;;5.65;3.80;;;;;;;;;;5056213;28;20024;-69
2022/06/01 01:41:51;;;;;;;10.07;4.20;;;;;;;;;;5056031;28;20474;-68
2022/06/01 01:44:38;;;;;;;5.05;3.78;;;;;;;;;;5056058;28;20032;-69
2022/06/01 01:47:03;;;;;;;5.15;3.92;;;;;;;;;;5054548;28;20029;-68
2022/06/01 01:49:32;;;;;;;6.07;4.00;;;;;;;;;;5055936;28;20031;-67
2022/06/01 01:52:02;;;;;;;14.43;4.82;;;;;;;;;;5055583;28;20052;-68
2022/06/01 01:54:57;;;;;;;5.68;3.78;;;;;;;;;;5054500;28;20024;-68
2022/06/01 01:57:31;;;;;;;5.70;3.90;;;;;;;;;;5055876;28;20110;-68
2022/06/01 02:00:05;;;;;;;6.18;3.53;;;;;;;;;;5055745;28;20067;-68
2022/06/01 02:02:46;;;;;;;5.38;3.47;;;;;;;;;;5055624;28;20033;-68
2022/06/01 02:06:07;;;;;;;5.65;3.45;;;;;;;;;;5055434;28;20379;-68
2022/06/01 02:08:33;;;;;;;6.45;3.38;;;;;;;;;;5055436;28;20044;-68
2022/06/01 02:14:24;;;;;;;5.20;3.58;;;;;;;;;;5055548;28;20082;-68
2022/06/01 02:17:01;;;;;;;5.43;3.90;;;;;;;;;;5055460;28;20187;-68
2022/06/01 02:19:33;;;;;;;5.32;3.85;;;;;;;;;;5054913;28;20131;-67
2022/06/01 02:21:59;;;;;;;6.20;3.78;;;;;;;;;;5055311;28;20053;-68
2022/06/01 02:24:25;;;;;;;6.20;4.28;;;;;;;;;;5055292;28;20474;-68
2022/06/01 02:26:54;;;;;;;6.30;4.00;;;;;;;;;;5055279;28;20111;-66
2022/06/01 02:29:25;;;;;;;6.30;4.07;;;;;;;;;;5054839;28;20040;-68
2022/06/01 02:31:52;;;;;;;7.18;4.30;;;;;;;;;;5054762;28;20363;-68
2022/06/01 02:34:20;;;;;;;8.63;4.05;;;;;;;;;;5054974;28;20025;-68
2022/06/01 02:36:45;;;;;;;8.90;4.10;;;;;;;;;;5054995;28;20029;-68
2022/06/01 02:39:14;;;;;;;6.20;3.88;;;;;;;;;;5055112;28;20035;-68
2022/06/01 02:44:23;;;;;;;7.28;3.70;;;;;;;;;;5055040;28;20083;-68
2022/06/01 02:46:49;;;;;;;5.88;3.90;;;;;;;;;;5054764;28;20025;-69
2022/06/01 02:49:17;;;;;;;5.63;3.38;;;;;;;;;;5054636;28;20025;-68
2022/06/01 02:51:43;;;;;;;9.00;4.00;;;;;;;;;;5054754;28;20025;-68
2022/06/01 02:54:09;;;;;;;7.32;4.40;;;;;;;;;;5054681;28;20086;-68
2022/06/01 02:56:35;;;;;;;7.20;4.45;;;;;;;;;;5054494;28;20386;-68
2022/06/01 02:59:00;;;;;;;8.35;4.45;;;;;;;;;;5054542;28;20428;-67
2022/06/01 03:01:26;;;;;;;6.18;4.35;;;;;;;;;;5054620;28;20569;-68
2022/06/01 03:03:53;;;;;;;12.07;5.85;;;;;;;;;;5054389;28;20044;-66
2022/06/01 03:06:19;;;;;;;5.95;4.43;;;;;;;;;;5054332;28;20077;-68
2022/06/01 03:08:45;;;;;;;7.22;4.38;;;;;;;;;;5054405;28;20032;-67
2022/06/01 03:11:12;;;;;;;8.27;5.35;;;;;;;;;;5054406;28;20031;-66
2022/06/01 03:13:37;;;;;;;7.75;4.40;;;;;;;;;;5054311;28;20017;-66
2022/06/01 03:16:03;;;;;;;8.80;4.88;;;;;;;;;;5054284;28;20514;-68
2022/06/01 03:18:31;;;;;;;7.10;4.22;;;;;;;;;;5053615;28;20082;-68
2022/06/01 03:20:58;;;;;;;7.25;4.45;;;;;;;;;;5054179;28;20029;-67
2022/06/01 03:23:24;;;;;;;7.47;5.00;;;;;;;;;;5054117;28;20053;-68
2022/06/01 03:25:50;;;;;;;9.05;4.90;;;;;;;;;;5054017;28;20431;-68
2022/06/01 03:28:16;;;;;;;8.93;4.95;;;;;;;;;;5054248;28;20021;-67
2022/06/01 03:30:43;;;;;;;9.00;4.88;;;;;;;;;;5053985;28;20409;-68
2022/06/01 03:33:15;;;;;;;9.15;5.28;;;;;;;;;;5053656;28;20021;-68
2022/06/01 03:35:41;;;;;;;10.68;5.05;;;;;;;;;;5053914;28;20096;-66
2022/06/01 03:38:07;;;;;;;10.43;4.90;;;;;;;;;;5053983;28;20466;-66
2022/06/01 03:40:33;;;;;;;11.75;4.80;;;;;;;;;;5052952;28;20028;-66
2022/06/01 03:43:00;;;;;;;7.13;4.38;;;;;;;;;;5053754;28;20048;-67
2022/06/01 03:48:12;;;;;;;8.82;5.20;;;;;;;;;;5054086;28;20068;-68
2022/06/01 03:50:38;;;;;;;8.77;5.18;;;;;;;;;;5053461;28;20029;-68
2022/06/01 03:53:05;;;;;;;11.38;5.30;;;;;;;;;;5053526;28;20035;-68
2022/06/01 03:55:31;;;;;;;9.77;5.60;;;;;;;;;;5053427;28;20377;-68
2022/06/01 03:57:56;;;;;;;13.70;5.90;;;;;;;;;;5053430;28;20036;-68
2022/06/01 04:00:25;;;;;;;8.55;5.60;;;;;;;;;;5053352;28;20390;-68
2022/06/01 04:02:51;;;;;;;10.93;5.28;;;;;;;;;;5053472;28;20025;-68
2022/06/01 04:05:18;;;;;;;8.48;5.35;;;;;;;;;;5053424;28;20065;-68
2022/06/01 04:07:43;;;;;;;7.93;4.72;;;;;;;;;;5053271;28;20025;-68
2022/06/01 04:10:09;;;;;;;8.07;4.93;;;;;;;;;;5053292;28;20429;-68
2022/06/01 04:12:35;;;;;;;9.52;5.07;;;;;;;;;;5053132;28;20029;-68
2022/06/01 04:15:01;;;;;;;5.68;4.40;;;;;;;;;;5052914;28;20028;-68
2022/06/01 04:17:27;;;;;;;8.05;4.68;;;;;;;;;;5052957;28;20546;-67
2022/06/01 04:19:52;;;;;;;6.18;4.30;;;;;;;;;;5052569;28;20458;-68
2022/06/01 04:22:19;;;;;;;7.28;4.45;;;;;;;;;;5052812;28;20084;-68
2022/06/01 04:24:45;;;;;;;9.23;4.85;;;;;;;;;;5052869;28;20041;-68
2022/06/01 04:27:12;;;;;;;7.72;4.72;;;;;;;;;;5052842;28;20049;-68
2022/06/01 04:29:37;;;;;;;9.70;4.97;;;;;;;;;;5052400;28;20112;-68
2022/06/01 04:32:11;;;;;;;9.25;4.57;;;;;;;;;;5053066;28;20104;-68
2022/06/01 04:34:37;;;;;;;9.27;4.82;;;;;;;;;;5052932;28;20355;-69
2022/06/01 04:37:03;;;;;;;8.40;4.53;;;;;;;;;;5052761;28;20112;-68
2022/06/01 04:39:29;;;;;;;8.88;4.95;;;;;;;;;;5052855;28;20025;-67
2022/06/01 04:41:55;;;;;;;10.27;4.90;;;;;;;;;;5052670;28;20393;-68
2022/06/01 04:44:21;;;;;;;9.02;4.63;;;;;;;;;;5052571;28;20025;-66
2022/06/01 04:46:46;;;;;;;12.65;4.53;;;;;;;;;;5052542;28;20154;-68
2022/06/01 04:49:12;;;;;;;8.70;4.50;;;;;;;;;;5052750;28;20078;-67
2022/06/01 04:51:38;;;;;;;7.80;4.20;;;;;;;;;;5052618;28;20029;-67
2022/06/01 04:54:05;;;;;;;6.85;4.15;;;;;;;;;;5052484;28;20461;-68
2022/06/01 04:56:31;;;;;;;7.82;4.00;;;;;;;;;;5052591;28;20027;-67
2022/06/01 04:58:57;;;;;;;6.55;4.03;;;;;;;;;;5052568;28;20389;-68
2022/06/01 05:01:23;;;;;;;7.43;4.38;;;;;;;;;;5052604;28;20458;-69
2022/06/01 05:03:48;;;;;;;5.85;4.07;;;;;;;;;;5052659;28;20021;-68
2022/06/01 05:06:14;;;;;;;7.60;4.05;;;;;;;;;;5052435;28;20029;-68
2022/06/01 05:08:39;;;;;;;7.63;4.40;;;;;;;;;;5051145;28;20074;-68
2022/06/01 05:11:05;;;;;;;7.50;4.68;;;;;;;;;;5051089;28;20074;-66
2022/06/01 05:13:31;;;;;;;6.65;4.65;;;;;;;;;;5050906;28;20029;-67
2022/06/01 05:15:58;;;;;;;6.28;4.28;;;;;;;;;;5051573;28;20025;-67
2022/06/01 05:18:25;;;;;;;5.75;4.22;;;;;;;;;;5051476;28;20037;-67
2022/06/01 05:20:51;;;;;;;6.25;4.50;;;;;;;;;;5051026;28;20106;-67
2022/06/01 05:23:17;;;;;;;6.10;4.25;;;;;;;;;;5051731;28;20049;-68
2022/06/01 05:25:45;;;;;;;5.80;4.15;;;;;;;;;;5051260;28;20037;-67
2022/06/01 05:28:11;;;;;;;7.18;5.05;;;;;;;;;;5051650;28;20064;-67
2022/06/01 05:30:37;;;;;;;13.38;5.10;;;;;;;;;;5051608;28;20387;-67
2022/06/01 05:33:03;;;;;;;8.85;5.63;;;;;;;;;;5051847;28;20040;-67
2022/06/01 05:35:29;;;;;;;8.15;5.20;;;;;;;;;;5052143;28;20036;-67
2022/06/01 05:37:55;;;;;;;6.00;4.70;;;;;;;;;;5052136;28;20092;-68
2022/06/01 05:40:21;;;;;;;7.00;4.72;;;;;;;;;;5052263;28;20394;-68
2022/06/01 05:42:46;;;;;;;5.90;4.50;;;;;;;;;;5051935;28;20029;-68
2022/06/01 05:45:12;;;;;;;6.45;4.28;;;;;;;;;;5052226;28;20112;-68
2022/06/01 05:47:38;;;;;;;8.50;4.28;;;;;;;;;;5052111;28;20036;-67
2022/06/01 05:50:04;;;;;;;7.05;4.32;;;;;;;;;;5052278;28;20146;-67
2022/06/01 05:52:30;;;;;;;6.10;3.75;;;;;;;;;;5052019;28;20104;-66
2022/06/01 05:54:55;;;;;;;5.65;4.38;;;;;;;;;;5052204;28;20041;-67
2022/06/01 05:57:21;;;;;;;5.45;4.30;;;;;;;;;;5051899;28;20021;-66
2022/06/01 05:59:47;;;;;;;8.23;4.30;;;;;;;;;;5050608;28;20028;-66
2022/06/01 06:02:12;;;;;;;12.95;4.13;;;;;;;;;;5051997;28;20083;-66
2022/06/01 06:04:38;;;;;;;7.03;4.10;;;;;;;;;;5054620;28;20454;-66
2022/06/01 06:07:03;;;;;;;6.03;3.78;;;;;;;;;;5055561;28;20040;-65
2022/06/01 06:09:29;;;;;;;8.00;4.30;;;;;;;;;;5055806;28;20036;-66
2022/06/01 06:11:55;;;;;;;7.55;4.07;;;;;;;;;;5055530;28;20518;-66
2022/06/01 06:14:21;;;;;;;5.55;3.65;;;;;;;;;;5055561;28;20032;-67
2022/06/01 06:16:47;;;;;;;7.65;4.15;;;;;;;;;;5055416;28;20478;-65
2022/06/01 06:19:14;;;;;;;6.10;3.90;;;;;;;;;;5055276;28;20029;-67
2022/06/01 06:21:39;;;;;;;9.00;4.90;;;;;;;;;;5055217;28;20195;-67
2022/06/01 06:24:08;;;;;;;6.38;4.20;;;;;;;;;;5055136;28;20063;-67
2022/06/01 06:26:35;;;;;;;5.55;3.78;;;;;;;;;;5054994;28;20029;-68
2022/06/01 06:29:02;;;;;;;5.38;3.50;;;;;;;;;;5055385;28;20021;-67
2022/06/01 06:31:27;;;;;;;6.18;3.67;;;;;;;;;;5055171;28;20036;-67
2022/06/01 06:33:53;;;;;;;7.35;4.53;;;;;;;;;;5055047;28;20374;-67
2022/06/01 06:36:18;;;;;;;6.20;4.30;;;;;;;;;;5054960;28;20032;-67
2022/06/01 06:38:44;;;;;;;6.10;4.55;;;;;;;;;;5054837;28;20513;-66
2022/06/01 06:41:11;;;;;;;5.90;4.13;;;;;;;;;;5054560;28;20029;-67
2022/06/01 06:43:37;;;;;;;7.50;4.20;;;;;;;;;;5054546;28;20025;-66
2022/06/01 06:46:05;;;;;;;6.85;3.80;;;;;;;;;;5052132;28;20457;-67
2022/06/01 06:48:31;;;;;;;6.20;3.75;;;;;;;;;;5044717;28;20026;-67
2022/06/01 06:50:57;;;;;;;7.63;4.25;;;;;;;;;;5048589;28;20559;-67
2022/06/01 06:53:24;;;;;;;5.57;3.97;;;;;;;;;;5052867;28;20041;-67
2022/06/01 06:55:50;;;;;;;6.35;3.95;;;;;;;;;;5066886;28;20111;-68
2022/06/01 06:58:16;;;;;;;5.97;4.13;;;;;;;;;;5073381;28;20099;-67
2022/06/01 07:00:41;;;;;;;4.70;2.83;;;;;;;;;;5072815;28;20472;-67
2022/06/01 07:03:07;;;;;;;6.22;3.85;;;;;;;;;;5072959;28;20052;-67
2022/06/01 07:08:18;;;;;;;6.30;4.07;;;;;;;;;;5073537;28;20403;-68
2022/06/01 07:10:43;;;;;;;5.88;4.00;;;;;;;;;;5073907;28;20028;-67
2022/06/01 07:13:10;;;;;;;5.57;3.83;;;;;;;;;;5073990;28;20024;-68
2022/06/01 07:15:35;;;;;;;6.07;4.20;;;;;;;;;;5072870;28;20050;-65
2022/06/01 07:18:03;;;;;;;8.32;4.93;;;;;;;;;;5065814;28;20032;-68
2022/06/01 07:20:29;;;;;;;10.57;5.45;;;;;;;;;;5053162;28;20032;-66
2022/06/01 07:22:56;;;;;;;9.70;5.15;;;;;;;;;;5052350;28;20049;-66
2022/06/01 07:25:22;;;;;;;9.23;4.95;;;;;;;;;;5053476;28;20418;-66
2022/06/01 07:27:49;;;;;;;9.27;5.47;;;;;;;;;;5053886;28;20025;-66
2022/06/01 07:30:15;;;;;;;9.13;5.55;;;;;;;;;;5053777;28;20033;-66
2022/06/01 07:32:44;;;;;;;11.00;5.68;;;;;;;;;;5053595;28;20036;-64
2022/06/01 07:35:10;;;;;;;8.25;5.53;;;;;;;;;;5053815;28;20025;-66
2022/06/01 07:43:22;;;;;;;9.50;5.35;;;;;;;;;;5031347;28;20057;-66
2022/06/01 07:45:49;;;;;;;11.27;5.10;;;;;;;;;;5031312;28;20044;-67
2022/06/01 07:48:16;;;;;;;8.70;4.40;;;;;;;;;;5031496;28;20073;-66
2022/06/01 07:50:42;;;;;;;9.00;5.07;;;;;;;;;;5031390;28;20115;-66
2022/06/01 07:53:09;;;;;;;9.98;5.00;;;;;;;;;;5030942;28;20179;-67
2022/06/01 07:55:36;;;;;;;10.00;5.28;;;;;;;;;;5031436;28;20037;-67
2022/06/01 07:58:02;;;;;;;7.60;5.30;;;;;;;;;;5031381;28;20040;-67
2022/06/01 08:00:31;;;;;;;8.68;5.32;;;;;;;;;;5031213;28;20446;-66
2022/06/01 08:02:57;;;;;;;10.52;5.97;;;;;;;;;;5031367;28;20036;-68
2022/06/01 08:05:23;;;;;;;9.02;5.60;;;;;;;;;;5031281;28;20053;-68
2022/06/01 08:07:49;;;;;;;9.23;6.53;;;;;;;;;;5031024;28;20088;-68
2022/06/01 08:10:18;;;;;;;10.13;6.22;;;;;;;;;;5031294;28;20475;-69
2022/06/01 08:15:28;;;;;;;8.60;6.43;;;;;;;;;;5030649;28;20060;-68
2022/06/01 08:17:55;;;;;;;10.07;6.97;;;;;;;;;;5026863;28;20042;-68
2022/06/01 08:20:20;;;;;;;11.63;7.60;;;;;;;;;;5052214;28;20041;-66
2022/06/01 08:22:46;;;;;;;8.43;6.05;;;;;;;;;;5052397;28;20505;-66
2022/06/01 08:25:16;;;;;;;8.95;5.80;;;;;;;;;;5052367;28;20350;-65
2022/06/01 08:27:42;;;;;;;8.93;4.83;;;;;;;;;;5052192;28;20383;-66
2022/06/01 08:30:08;;;;;;;6.10;4.28;;;;;;;;;;5052725;28;20458;-67
2022/06/01 08:32:35;;;;;;;6.03;3.72;;;;;;;;;;5052609;28;20036;-67
2022/06/01 08:35:02;;;;;;;5.53;3.65;;;;;;;;;;5052521;28;20470;-66
2022/06/01 08:37:28;;;;;;;8.32;3.85;;;;;;;;;;5052577;28;20465;-69
2022/06/01 08:39:53;;;;;;;5.90;3.38;;;;;;;;;;5050602;28;20048;-68
2022/06/01 08:42:23;;;;;;;5.35;3.80;;;;;;;;;;5052793;28;20021;-66
2022/06/01 08:44:50;;;;;;;5.80;3.60;;;;;;;;;;5052782;28;20025;-68
2022/06/01 08:47:22;;;;;;;8.93;3.10;;;;;;;;;;5052364;28;20036;-67
2022/06/01 08:49:48;;;;;;;3.70;2.70;;;;;;;;;;5052493;28;20021;-67
2022/06/01 08:52:14;;;;;;;5.30;2.25;;;;;;;;;;5052260;28;20389;-66
2022/06/01 08:54:39;;;;;;;5.10;2.40;;;;;;;;;;5050993;28;20025;-63
2022/06/01 08:57:14;;;;;;;2.30;1.77;;;;;;;;;;5052366;28;20017;-64
2022/06/01 09:00:10;;;;;;;1.73;1.45;;;;;;;;;;5052363;28;20105;-64
2022/06/01 09:02:59;;;;;;;2.28;1.65;;;;;;;;;;5052282;28;20108;-67
2022/06/01 09:05:57;;;;;;;2.50;1.67;;;;;;;;;;5052022;28;20443;-67
2022/06/01 09:08:30;;;;;;;2.97;1.63;;;;;;;;;;5052562;28;20075;-67
2022/06/01 09:10:58;;;;;;;1.60;1.30;;;;;;;;;;5052588;28;20031;-66
2022/06/01 09:13:30;;;;;;;3.17;1.48;;;;;;;;;;5052359;28;20029;-66
2022/06/01 09:16:12;;;;;;;1.60;1.30;;;;;;;;;;5052163;28;20025;-64
2022/06/01 09:19:08;;;;;;;2.05;1.27;;;;;;;;;;5043878;28;20033;-66
2022/06/01 09:24:32;;;;;;;2.42;1.13;;;;;;;;;;5072501;28;20104;-66
2022/06/01 09:27:12;;;;;;;2.90;1.40;;;;;;;;;;5071861;28;20111;-66
2022/06/01 09:29:46;;;;;;;;;;;;;;;;;;5072600;28;20051;-66
2022/06/01 09:32:33;;;;;;;2.03;1.40;;;;;;;;;;5072303;28;19912;-67
2022/06/01 09:35:03;;;;;;;2.60;1.58;;;;;;;;;;5072134;28;20016;-66
2022/06/01 09:37:33;;;;;;;2.17;1.55;;;;;;;;;;5072143;28;20024;-66
2022/06/01 09:40:03;;;;;;;1.70;1.30;;;;;;;;;;5075471;28;20051;-63
2022/06/01 09:42:38;;;;;;;4.70;1.88;;;;;;;;;;5075931;28;20155;-66
2022/06/01 09:45:22;;;;;;;3.33;1.80;;;;;;;;;;5076103;28;20477;-67
2022/06/01 09:47:50;;;;;;;2.67;1.50;;;;;;;;;;5075903;28;20029;-66
2022/06/01 09:50:29;;;;;;;2.40;1.30;;;;;;;;;;5075982;28;20086;-65
2022/06/01 09:53:19;;;;;;;2.08;1.40;;;;;;;;;;5051171;28;20029;-67
2022/06/01 09:56:00;;;;;;;4.93;1.90;;;;;;;;;;5047987;28;20545;-66
2022/06/01 10:06:54;;;;;;;3.08;1.90;;;;;;;;;;5055807;28;20048;-65
2022/06/01 10:09:26;;;;;;;6.53;1.67;;;;;;;;;;5054868;28;20036;-66
2022/06/01 10:11:54;;;;;;;3.90;1.50;;;;;;;;;;5055631;28;20029;-66
2022/06/01 10:14:34;;;;;;;3.30;1.83;;;;;;;;;;5055451;28;20048;-65
2022/06/01 10:17:06;;;;;;;;;;;;;;;;;;5055826;28;20071;-67
2022/06/01 10:19:48;;;;;;;2.78;1.58;;;;;;;;;;5054931;28;19963;-66
2022/06/01 10:22:26;;;;;;;3.08;1.88;;;;;;;;;;5055332;28;20479;-66
2022/06/01 10:25:02;;;;;;;2.40;1.48;;;;;;;;;;5055348;28;20029;-67
2022/06/01 10:27:32;;;;;;;2.75;1.50;;;;;;;;;;5055213;28;20039;-66
2022/06/01 10:30:07;;;;;;;2.72;1.67;;;;;;;;;;5055157;28;20059;-65
2022/06/01 10:32:55;;;;;;;2.25;1.52;;;;;;;;;;5052904;28;20029;-66
2022/06/01 10:35:44;;;;;;;4.07;1.63;;;;;;;;;;5054849;28;20028;-67
2022/06/01 10:38:17;;;;;;;4.00;1.60;;;;;;;;;;5054911;28;20482;-65
2022/06/01 10:40:55;;;;;;;4.57;1.63;;;;;;;;;;5054817;28;20052;-66
2022/06/01 10:43:28;;;;;;;2.30;1.35;;;;;;;;;;5053590;28;20053;-67
2022/06/01 10:46:23;;;;;;;3.03;1.60;;;;;;;;;;5054986;28;20108;-67
2022/06/01 10:49:26;;;;;;;3.72;1.70;;;;;;;;;;5054685;28;20090;-67
2022/06/01 10:52:29;;;;;;;2.70;1.60;;;;;;;;;;5054865;28;20037;-66
2022/06/01 10:55:14;;;;;;;3.88;1.70;;;;;;;;;;5054596;28;20419;-67
2022/06/01 10:57:43;;;;;;;2.83;1.73;;;;;;;;;;5054727;28;20040;-67
2022/06/01 11:00:16;;;;;;;2.50;1.52;;;;;;;;;;5054664;28;20108;-67
2022/06/01 11:02:59;;;;;;;2.70;1.90;;;;;;;;;;5054445;28;20028;-67
2022/06/01 11:05:32;;;;;;;4.40;2.20;;;;;;;;;;5054523;28;20025;-66
2022/06/01 11:08:19;;;;;;;4.18;2.05;;;;;;;;;;5054421;28;20363;-67
2022/06/01 11:11:18;;;;;;;3.83;2.58;;;;;;;;;;5054338;28;20028;-68
2022/06/01 11:14:20;;;;;;;4.13;3.20;;;;;;;;;;5054212;28;20083;-67
2022/06/01 11:17:00;;;;;;;7.72;3.17;;;;;;;;;;5053694;28;20603;-68
2022/06/01 11:19:34;;;;;;;6.85;3.03;;;;;;;;;;5053950;28;20024;-67
2022/06/01 11:22:24;;;;;;;4.20;2.83;;;;;;;;;;5054052;28;20398;-67
2022/06/01 11:24:49;;;;;;;3.42;2.65;;;;;;;;;;5053997;28;20064;-66
2022/06/01 11:27:33;;;;;;;6.93;2.50;;;;;;;;;;5054006;28;20461;-67
2022/06/01 11:30:14;;;;;;;5.28;2.80;;;;;;;;;;5053794;28;20021;-68
2022/06/01 11:32:58;;;;;;;7.05;2.95;;;;;;;;;;5053990;28;20017;-67
2022/06/01 11:35:33;;;;;;;3.65;2.20;;;;;;;;;;5052496;28;20021;-67
2022/06/01 11:38:12;;;;;;;3.33;2.50;;;;;;;;;;5047908;28;20029;-67
2022/06/01 11:41:03;;;;;;;13.32;3.38;;;;;;;;;;5052187;28;20039;-68
2022/06/01 11:43:34;;;;;;;12.35;3.55;;;;;;;;;;5050894;28;20029;-67
2022/06/01 11:46:03;;;;;;;7.20;3.40;;;;;;;;;;5049403;28;20020;-67
2022/06/01 11:48:35;;;;;;;10.82;4.00;;;;;;;;;;5052172;28;20497;-67
2022/06/01 11:51:13;;;;;;;7.55;3.67;;;;;;;;;;5049630;28;20037;-67
2022/06/01 11:54:04;;;;;;;9.52;4.70;;;;;;;;;;5052206;28;20430;-67
2022/06/01 11:56:30;;;;;;;;;;;;;;;;;;5051240;28;20028;-66
2022/06/01 11:58:58;;;;;;;5.45;3.78;;;;;;;;;;5051721;28;20007;-67
2022/06/01 12:01:35;;;;;;;6.90;3.65;;;;;;;;;;5051237;28;20060;-67
2022/06/01 12:04:22;;;;;;;5.70;3.40;;;;;;;;;;5049607;28;20056;-67
2022/06/01 12:07:05;;;;;;;4.85;3.00;;;;;;;;;;5049999;28;20067;-67
2022/06/01 12:09:37;;;;;;;3.75;2.53;;;;;;;;;;5050959;28;20351;-66
2022/06/01 12:12:03;;;;;;;3.75;2.47;;;;;;;;;;5049533;28;20021;-67
2022/06/01 12:14:41;;;;;;;4.60;2.90;;;;;;;;;;5050321;28;20120;-66
2022/06/01 12:17:18;;;;;;;3.90;2.78;;;;;;;;;;5049699;28;20020;-67
2022/06/01 12:19:49;;;;;;;5.90;2.72;;;;;;;;;;5052051;28;20104;-67
2022/06/01 12:29:04;;;;;;;4.50;3.30;;;;;;;;;;5030582;28;20037;-68
2022/06/01 12:31:33;;;;;;;4.90;2.78;;;;;;;;;;5031093;28;20147;-67
2022/06/01 12:34:04;;;;;;;3.90;2.50;;;;;;;;;;5030959;28;20540;-68
2022/06/01 12:36:51;;;;;;;3.38;2.20;;;;;;;;;;5030638;28;20061;-68
2022/06/01 12:39:40;;;;;;;3.10;2.30;;;;;;;;;;5030721;28;20037;-67
2022/06/01 12:42:31;;;;;;;5.00;1.70;;;;;;;;;;5030723;28;20041;-67
2022/06/01 12:44:59;;;;;;;4.13;1.90;;;;;;;;;;5024471;28;20085;-67
2022/06/01 12:47:32;;;;;;;2.50;1.80;;;;;;;;;;5030468;28;20033;-67
2022/06/01 12:50:11;;;;;;;2.65;1.85;;;;;;;;;;5030558;28;20065;-67
2022/06/01 12:52:37;;;;;;;4.43;2.60;;;;;;;;;;5030607;28;20502;-68
2022/06/01 12:55:29;;;;;;;4.22;2.70;;;;;;;;;;5030002;28;20033;-68
2022/06/01 12:57:58;;;;;;;3.65;2.50;;;;;;;;;;5027526;28;20107;-67
2022/06/01 13:00:36;;;;;;;3.55;2.38;;;;;;;;;;5030556;28;20029;-67
2022/06/01 13:03:10;;;;;;;3.55;2.20;;;;;;;;;;5051446;28;20044;-67
2022/06/01 13:05:46;;;;;;;5.65;2.50;;;;;;;;;;5052488;28;20028;-67
2022/06/01 13:08:18;;;;;;;4.38;2.50;;;;;;;;;;5052518;28;20025;-67
2022/06/01 13:10:44;;;;;;;3.00;2.30;;;;;;;;;;5048115;28;20406;-68
2022/06/01 13:13:15;;;;;;;8.38;2.15;;;;;;;;;;5036611;28;20021;-67
2022/06/01 13:15:42;;;;;;;5.05;1.88;;;;;;;;;;5047078;28;20022;-68
2022/06/01 13:18:30;;;;;;;2.63;1.88;;;;;;;;;;5039812;28;20079;-68
2022/06/01 13:21:07;;;;;;;6.45;2.10;;;;;;;;;;5052109;28;20032;-67
2022/06/01 13:24:06;;;;;;;4.32;2.13;;;;;;;;;;5049250;28;20061;-67
2022/06/01 13:26:39;;;;;;;5.60;2.42;;;;;;;;;;5041954;28;20041;-68
2022/06/01 13:29:17;;;;;;;4.85;2.38;;;;;;;;;;5051850;28;20482;-68
2022/06/01 13:31:47;;;;;;;5.35;2.08;;;;;;;;;;5032359;28;20111;-68
2022/06/01 13:34:30;;;;;;;2.17;1.27;;;;;;;;;;5032369;28;20025;-67
2022/06/01 13:37:24;;;;;;;3.53;1.58;;;;;;;;;;5038347;28;20029;-68
2022/06/01 13:39:54;;;;;;;2.47;1.52;;;;;;;;;;5051802;28;20143;-68
2022/06/01 13:42:29;;;;;;;2.65;1.60;;;;;;;;;;5051825;28;20108;-67
2022/06/01 13:45:04;;;;;;;4.55;2.30;;;;;;;;;;5051975;28;20037;-68
2022/06/01 13:47:48;;;;;;;6.47;2.20;;;;;;;;;;5052124;28;20507;-67
2022/06/01 13:50:14;;;;;;;2.97;1.55;;;;;;;;;;5052051;28;20091;-67
2022/06/01 13:52:45;;;;;;;6.18;1.80;;;;;;;;;;5051904;28;20044;-67
2022/06/01 13:55:29;;;;;;;3.17;1.63;;;;;;;;;;5051496;28;20044;-68
2022/06/01 13:58:07;;;;;;;3.25;1.73;;;;;;;;;;5051955;28;20443;-68
2022/06/01 14:00:40;;;;;;;6.93;2.22;;;;;;;;;;5051957;28;20033;-68
2022/06/01 14:03:13;;;;;;;4.03;1.70;;;;;;;;;;5051575;28;20021;-68
2022/06/01 14:05:43;;;;;;;5.28;1.70;;;;;;;;;;5051480;28;20174;-68
2022/06/01 14:08:28;;;;;;;4.05;1.80;;;;;;;;;;5051790;28;20028;-67
2022/06/01 14:10:55;;;;;;;2.33;1.45;;;;;;;;;;5051265;28;20033;-67
2022/06/01 14:13:22;;;;;;;3.85;1.80;;;;;;;;;;5051765;28;20040;-67
2022/06/01 14:15:50;;;;;;;6.03;2.85;;;;;;;;;;5051630;28;20017;-67
2022/06/01 14:18:24;;;;;;;3.17;2.00;;;;;;;;;;5050100;28;20025;-68
2022/06/01 14:20:50;;;;;;;3.95;1.90;;;;;;;;;;5051807;28;20443;-66
2022/06/01 14:23:17;;;;;;;2.63;1.83;;;;;;;;;;5051538;28;20069;-66
2022/06/01 14:28:30;;;;;;;2.28;1.40;;;;;;;;;;5054977;28;20121;-66
2022/06/01 14:30:57;;;;;;;1.95;1.50;;;;;;;;;;5054958;28;20031;-67
2022/06/01 14:33:26;;;;;;;2.92;2.20;;;;;;;;;;5055109;28;20437;-66
2022/06/01 14:35:53;;;;;;;3.07;1.73;;;;;;;;;;5055094;28;20025;-66
2022/06/01 14:38:19;;;;;;;3.80;1.60;;;;;;;;;;5054780;28;20087;-67
2022/06/01 14:40:45;;;;;;;2.20;1.40;;;;;;;;;;5054847;28;20044;-64
2022/06/01 14:43:11;;;;;;;3.40;1.52;;;;;;;;;;5054952;28;20155;-67
2022/06/01 14:45:37;;;;;;;2.28;1.52;;;;;;;;;;5054978;28;20108;-67
2022/06/01 14:48:03;;;;;;;2.10;1.58;;;;;;;;;;5054653;28;20033;-67
2022/06/01 14:50:29;;;;;;;1.90;1.50;;;;;;;;;;5054783;28;20036;-67
2022/06/01 14:52:55;;;;;;;3.25;1.40;;;;;;;;;;5054551;28;20029;-67
2022/06/01 14:55:21;;;;;;;3.35;1.80;;;;;;;;;;5054451;28;20032;-67
2022/06/01 14:57:47;;;;;;;4.28;1.60;;;;;;;;;;5054624;28;20108;-67
2022/06/01 15:00:13;;;;;;;3.85;1.70;;;;;;;;;;5054689;28;20108;-68
2022/06/01 15:02:42;;;;;;;1.92;1.50;;;;;;;;;;5054403;28;20025;-67
2022/06/01 15:05:08;;;;;;;1.80;1.30;;;;;;;;;;5054429;28;20029;-67
2022/06/01 15:07:34;;;;;;;2.35;1.50;;;;;;;;;;5052659;28;20036;-67
2022/06/01 15:10:00;;;;;;;5.88;2.60;;;;;;;;;;5053060;28;20025;-67
2022/06/01 15:12:26;;;;;;;1.83;1.55;;;;;;;;;;5052718;28;20033;-67
2022/06/01 15:14:52;;;;;;;2.83;1.70;;;;;;;;;;5052868;28;20458;-67
2022/06/01 15:17:26;;;;;;;2.53;1.52;;;;;;;;;;5051705;28;20031;-66
2022/06/01 15:19:53;;;;;;;2.08;1.38;;;;;;;;;;5053030;28;20471;-67
2022/06/01 15:22:19;;;;;;;2.60;1.65;;;;;;;;;;5052518;28;20114;-67
2022/06/01 15:24:45;;;;;;;3.03;1.50;;;;;;;;;;5052554;28;20075;-67
2022/06/01 15:27:13;;;;;;;2.22;1.30;;;;;;;;;;5050218;28;20453;-67
2022/06/01 15:40:36;;;;;;;2.58;1.58;;;;;;;;;;5050399;28;20031;-67
2022/06/01 15:43:02;;;;;;;2.65;1.30;;;;;;;;;;5052370;28;20029;-67
2022/06/01 15:45:33;;;;;;;9.88;1.30;;;;;;;;;;5052379;28;20104;-67
2022/06/01 15:48:00;;;;;;;2.30;1.60;;;;;;;;;;5052511;28;20029;-66
2022/06/01 15:50:26;;;;;;;2.03;1.30;;;;;;;;;;5053397;28;20033;-67
2022/06/01 15:52:52;;;;;;;4.88;1.23;;;;;;;;;;5053533;28;20036;-67
2022/06/01 15:55:19;;;;;;;2.25;1.30;;;;;;;;;;5053692;28;20035;-67